Time;durP1;ratioP1;P1;durP2;ratioP2;P2;SDS_P1;SDS_P2;PMS_P1;PMS_P2;Temp;Humidity;BMP_temperature;BMP_pressure;BME280_temperature;BME280_humidity;BME280_pressure;Samples;Min_cycle;Max_cycle;Signal;HPM_P1;HPM_P2
2023/01/22 00:02:19;;;;;;;;;;;;;;;4.34;97.13;94982.97;5054013;28;1049;-52
2023/01/22 00:04:45;;;;;;;;;;;;;;;4.51;97.73;94987.69;5053986;28;1037;-52
2023/01/22 00:07:12;;;;;;;;;;;;;;;4.75;97.86;94984.78;5071893;28;1038;-52
2023/01/22 00:09:37;;;;;;;;;;;;;;;4.88;95.92;94996.03;5093915;28;1031;-52
2023/01/22 00:12:04;;;;;;;;;;;;;;;4.93;95.78;95000.09;5093919;28;1034;-52
2023/01/22 00:14:30;;;;;;;;;;;;;;;4.91;95.22;95004.69;5093679;28;1092;-52
2023/01/22 00:16:56;;;;;;;;;;;;;;;4.93;94.32;95021.28;5094108;28;1125;-52
2023/01/22 00:19:22;;;;;;;;;;;;;;;4.94;94.94;95015.03;5093191;28;1985;-52
2023/01/22 00:21:48;;;;;;;;;;;;;;;4.88;94.10;95009.28;5093846;28;1215;-52
2023/01/22 00:24:14;;;;;;;;;;;;;;;4.76;93.56;95015.63;5093806;28;1024;-52
2023/01/22 00:26:40;;;;;;;;;;;;;;;4.48;94.47;95027.66;5093666;28;1020;-52
2023/01/22 00:29:06;;;;;;;;;;;;;;;4.52;94.81;95028.25;5093681;28;1034;-52
2023/01/22 00:31:32;;;;;;;;;;;;;;;4.62;94.78;95023.88;5093521;28;1403;-52
2023/01/22 00:33:58;;;;;;;;;;;;;;;4.72;94.70;95031.88;5093656;28;1042;-52
2023/01/22 00:36:24;;;;;;;;;;;;;;;4.80;94.60;95029.41;5093651;28;965;-52
2023/01/22 00:38:50;;;;;;;;;;;;;;;4.77;95.97;95033.19;5093464;28;1918;-52
2023/01/22 00:41:17;;;;;;;;;;;;;;;4.76;95.55;95030.66;5075573;28;1048;-52
2023/01/22 00:43:43;;;;;;;;;;;;;;;4.66;94.49;95026.13;5093722;28;1013;-52
2023/01/22 00:46:10;;;;;;;;;;;;;;;4.81;94.52;95042.53;5093490;28;1040;-52
2023/01/22 00:48:37;;;;;;;;;;;;;;;4.84;94.92;95044.94;5093391;28;1060;-52
2023/01/22 00:51:03;;;;;;;;;;;;;;;4.96;94.84;95044.88;5093482;28;1108;-52
2023/01/22 00:53:30;;;;;;;;;;;;;;;4.95;93.95;95053.78;5093460;28;1253;-51
2023/01/22 00:55:57;;;;;;;;;;;;;;;4.86;94.08;95058.06;5085972;28;1150;-52
2023/01/22 00:58:23;;;;;;;;;;;;;;;4.67;93.65;95064.06;5073035;28;1999;-52
2023/01/22 01:00:50;;;;;;;;;;;;;;;4.50;94.31;95070.75;5076894;28;1366;-52
2023/01/22 01:03:26;;;;;;;;;;;;;;;4.12;95.36;95064.13;5093498;28;973;-51
2023/01/22 01:05:55;;;;;;;;;;;;;;;4.22;96.50;95069.50;5093359;28;1049;-52
2023/01/22 01:08:22;;;;;;;;;;;;;;;4.40;95.91;95072.44;5093226;28;1024;-52
2023/01/22 01:10:48;;;;;;;;;;;;;;;4.48;95.70;95073.50;5093459;28;1033;-52
2023/01/22 01:13:14;;;;;;;;;;;;;;;4.57;94.94;95077.22;5093301;28;1076;-52
2023/01/22 01:15:40;;;;;;;;;;;;;;;4.60;94.57;95076.13;5093230;28;957;-52
2023/01/22 01:18:11;;;;;;;;;;;;;;;4.43;93.52;95078.34;5093180;28;1911;-52
2023/01/22 01:20:37;;;;;;;;;;;;;;;4.19;94.06;95075.03;5093151;28;1033;-52
2023/01/22 01:23:04;;;;;;;;;;;;;;;4.21;94.97;95076.63;5093093;28;1056;-52
2023/01/22 01:25:30;;;;;;;;;;;;;;;4.30;94.98;95077.66;5093061;28;1029;-52
2023/01/22 01:27:56;;;;;;;;;;;;;;;4.28;94.87;95075.13;5093123;28;1092;-52
2023/01/22 01:30:22;;;;;;;;;;;;;;;4.17;93.17;95076.97;5093979;28;977;-52
2023/01/22 01:32:48;;;;;;;;;;;;;;;4.17;94.72;95087.56;5079134;28;1032;-52
2023/01/22 01:35:14;;;;;;;;;;;;;;;4.02;95.46;95089.63;5097056;28;1037;-51
2023/01/22 01:37:40;;;;;;;;;;;;;;;3.98;95.11;95094.31;5096636;28;1906;-52
2023/01/22 01:40:06;;;;;;;;;;;;;;;4.14;95.83;95098.41;5078867;28;1266;-52
2023/01/22 01:42:38;;;;;;;;;;;;;;;4.20;94.21;95088.16;5096914;28;1036;-52
2023/01/22 01:45:20;;;;;;;;;;;;;;;4.02;93.51;95087.84;5096754;28;1088;-51
2023/01/22 01:47:48;;;;;;;;;;;;;;;4.05;94.50;95087.56;5096747;28;1058;-52
2023/01/22 01:50:16;;;;;;;;;;;;;;;4.12;95.37;95087.94;5096598;28;1009;-52
2023/01/22 01:52:43;;;;;;;;;;;;;;;4.20;94.75;95088.16;5096751;28;1032;-52
2023/01/22 01:55:09;;;;;;;;;;;;;;;4.13;95.38;95078.19;5095559;28;1157;-52
2023/01/22 01:57:36;;;;;;;;;;;;;;;4.04;92.29;95083.25;5076195;28;1984;-52
2023/01/22 02:00:09;;;;;;;;;;;;;;;3.76;92.18;95078.50;5076289;28;981;-52
2023/01/22 02:02:35;;;;;;;;;;;;;;;3.77;94.54;95085.44;5076024;28;1054;-51
2023/01/22 02:05:03;;;;;;;;;;;;;;;3.77;93.86;95080.16;5076082;28;1073;-52
2023/01/22 02:07:29;;;;;;;;;;;;;;;3.57;94.96;95081.75;5076219;28;1008;-52
2023/01/22 02:09:55;;;;;;;;;;;;;;;3.65;96.29;95082.81;5058140;28;1034;-52
2023/01/22 02:12:21;;;;;;;;;;;;;;;3.77;95.38;95074.88;5075866;28;1088;-52
2023/01/22 02:14:48;;;;;;;;;;;;;;;3.99;94.71;95076.66;5075995;28;1040;-52
2023/01/22 02:17:19;;;;;;;;;;;;;;;3.98;94.54;95083.72;5075758;28;1902;-52
2023/01/22 02:19:45;;;;;;;;;;;;;;;4.04;94.38;95093.84;5075862;28;990;-52
2023/01/22 02:22:18;;;;;;;;;;;;;;;3.77;93.94;95099.50;5075995;28;1050;-51
2023/01/22 02:24:44;;;;;;;;;;;;;;;3.80;94.53;95111.66;5075864;28;1274;-52
2023/01/22 02:27:10;;;;;;;;;;;;;;;3.87;94.59;95116.34;5075798;28;1045;-52
2023/01/22 02:29:37;;;;;;;;;;;;;;;3.94;94.97;95116.69;5075679;28;1243;-52
2023/01/22 02:32:03;;;;;;;;;;;;;;;3.61;94.07;95121.03;5076136;28;1040;-52
2023/01/22 02:34:29;;;;;;;;;;;;;;;3.29;95.45;95127.00;5075661;28;958;-52
2023/01/22 02:36:55;;;;;;;;;;;;;;;3.06;97.40;95120.81;5075625;28;1028;-51
2023/01/22 02:39:22;;;;;;;;;;;;;;;3.27;100.00;95115.69;5075501;28;1981;-52
2023/01/22 02:41:48;;;;;;;;;;;;;;;3.69;99.53;95113.31;5075314;28;1028;-52
2023/01/22 02:44:14;;;;;;;;;;;;;;;4.05;97.91;95114.03;5075507;28;1201;-51
2023/01/22 02:46:40;;;;;;;;;;;;;;;4.17;96.11;95114.84;5075245;28;1040;-52
2023/01/22 02:49:06;;;;;;;;;;;;;;;4.20;96.16;95116.44;5075515;28;1038;-51
2023/01/22 02:51:32;;;;;;;;;;;;;;;3.99;93.93;95118.97;5075426;28;1104;-52
2023/01/22 02:53:58;;;;;;;;;;;;;;;3.92;94.43;95115.97;5075367;28;1061;-52
2023/01/22 02:56:24;;;;;;;;;;;;;;;3.79;93.80;95125.81;5063630;28;1087;-52
2023/01/22 02:58:50;;;;;;;;;;;;;;;3.69;95.58;95128.34;5055084;28;1914;-52
2023/01/22 03:01:20;;;;;;;;;;;;;;;3.81;96.14;95123.91;5055132;28;1040;-51
2023/01/22 03:03:57;;;;;;;;;;;;;;;3.82;96.01;95122.97;5055334;28;1002;-52
2023/01/22 03:06:24;;;;;;;;;;;;;;;4.02;95.30;95124.00;5055117;28;969;-52
2023/01/22 03:08:53;;;;;;;;;;;;;;;4.05;95.50;95124.63;5055042;28;973;-52
2023/01/22 03:11:19;;;;;;;;;;;;;;;4.17;95.16;95127.25;5054885;28;997;-52
2023/01/22 03:22:00;;;;;;;;;;;;;;;3.97;95.21;95129.69;5054717;28;1034;-52
2023/01/22 03:24:26;;;;;;;;;;;;;;;4.08;95.27;95132.31;5054521;28;1104;-52
2023/01/22 03:26:52;;;;;;;;;;;;;;;4.22;93.80;95125.09;5054565;28;1065;-52
2023/01/22 03:29:18;;;;;;;;;;;;;;;4.27;94.34;95130.84;5054700;28;1001;-52
2023/01/22 03:31:47;;;;;;;;;;;;;;;4.20;93.94;95130.50;5054620;28;961;-52
2023/01/22 03:34:14;;;;;;;;;;;;;;;4.27;93.41;95129.03;5054525;28;1010;-52
2023/01/22 03:36:40;;;;;;;;;;;;;;;4.09;92.76;95123.41;5054336;28;994;-52
2023/01/22 03:39:06;;;;;;;;;;;;;;;3.59;92.53;95125.59;5054580;28;1906;-52
2023/01/22 03:41:32;;;;;;;;;;;;;;;3.48;93.91;95133.50;5054431;28;1051;-52
2023/01/22 03:44:00;;;;;;;;;;;;;;;3.52;94.57;95134.94;5054251;28;1894;-52
2023/01/22 03:46:26;;;;;;;;;;;;;;;3.71;95.34;95135.19;5054106;28;1034;-52
2023/01/22 03:48:52;;;;;;;;;;;;;;;3.82;94.81;95133.53;5054140;28;1097;-51
2023/01/22 03:51:18;;;;;;;;;;;;;;;3.50;91.69;95137.72;5054073;28;1053;-52
2023/01/22 03:53:45;;;;;;;;;;;;;;;3.48;94.08;95152.00;5052302;28;1080;-52
2023/01/22 03:56:13;;;;;;;;;;;;;;;3.52;94.55;95145.53;5063706;28;1356;-52
2023/01/22 03:58:39;;;;;;;;;;;;;;;3.65;93.93;95148.06;5073784;28;1898;-51
2023/01/22 04:01:07;;;;;;;;;;;;;;;3.38;94.31;95153.66;5073876;28;1085;-52
2023/01/22 04:03:33;;;;;;;;;;;;;;;3.42;95.17;95155.13;5073758;28;1104;-52
2023/01/22 04:05:59;;;;;;;;;;;;;;;3.50;94.99;95158.84;5056033;28;1091;-52
2023/01/22 04:08:29;;;;;;;;;;;;;;;3.50;94.51;95160.66;5073678;28;1112;-52
2023/01/22 04:10:56;;;;;;;;;;;;;;;3.58;94.93;95165.38;5073922;28;1029;-52
2023/01/22 04:13:23;;;;;;;;;;;;;;;3.57;94.54;95176.91;5073446;28;1124;-52
2023/01/22 04:15:49;;;;;;;;;;;;;;;3.41;95.02;95179.88;5073741;28;1025;-51
2023/01/22 04:18:15;;;;;;;;;;;;;;;3.50;95.77;95182.66;5073482;28;1906;-52
2023/01/22 04:20:41;;;;;;;;;;;;;;;3.32;96.13;95184.91;5073467;28;1025;-52
2023/01/22 04:23:07;;;;;;;;;;;;;;;3.34;95.66;95182.16;5073552;28;1089;-51
2023/01/22 04:25:34;;;;;;;;;;;;;;;3.39;95.37;95193.19;5073441;28;1097;-52
2023/01/22 04:28:01;;;;;;;;;;;;;;;3.49;95.03;95193.34;5073510;28;1109;-52
2023/01/22 04:30:27;;;;;;;;;;;;;;;3.49;94.26;95203.91;5073411;28;1033;-52
2023/01/22 04:32:53;;;;;;;;;;;;;;;3.41;93.07;95198.38;5073420;28;1084;-52
2023/01/22 04:35:19;;;;;;;;;;;;;;;3.01;92.24;95196.91;5073349;28;1180;-51
2023/01/22 04:37:45;;;;;;;;;;;;;;;2.98;94.45;95202.44;5073259;28;1910;-52
2023/01/22 04:40:11;;;;;;;;;;;;;;;3.08;94.73;95206.06;5055850;28;970;-51
2023/01/22 04:42:37;;;;;;;;;;;;;;;3.20;95.37;95212.22;5073455;28;1044;-52
2023/01/22 04:45:03;;;;;;;;;;;;;;;3.36;95.67;95214.59;5073419;28;1046;-51
2023/01/22 04:47:29;;;;;;;;;;;;;;;3.49;94.87;95219.75;5055556;28;1053;-52
2023/01/22 04:49:55;;;;;;;;;;;;;;;3.33;93.82;95220.09;5073165;28;1101;-52
2023/01/22 04:52:21;;;;;;;;;;;;;;;3.32;93.93;95227.19;5073121;28;1112;-51
2023/01/22 04:54:48;;;;;;;;;;;;;;;3.37;93.57;95232.13;5073207;28;1009;-52
2023/01/22 04:57:14;;;;;;;;;;;;;;;3.44;93.88;95227.22;5054833;28;1842;-52
2023/01/22 04:59:40;;;;;;;;;;;;;;;3.28;93.70;95233.66;5053173;28;981;-52
2023/01/22 05:02:06;;;;;;;;;;;;;;;3.25;93.94;95235.69;5053112;28;1113;-51
2023/01/22 05:04:32;;;;;;;;;;;;;;;3.22;94.51;95241.19;5053048;28;1064;-51
2023/01/22 05:06:58;;;;;;;;;;;;;;;3.08;94.88;95248.34;5056929;28;1015;-51
2023/01/22 05:09:24;;;;;;;;;;;;;;;3.14;96.77;95252.34;5072559;28;1033;-51
2023/01/22 05:11:50;;;;;;;;;;;;;;;3.22;95.93;95263.16;5055944;28;1133;-52
2023/01/22 05:14:16;;;;;;;;;;;;;;;3.31;95.63;95261.66;5057051;28;1344;-52
2023/01/22 05:16:42;;;;;;;;;;;;;;;3.25;95.28;95262.13;5057054;28;1052;-51
2023/01/22 05:19:08;;;;;;;;;;;;;;;3.08;95.84;95263.34;5056864;28;1984;-51
2023/01/22 05:21:34;;;;;;;;;;;;;;;3.09;96.82;95260.63;5057115;28;1028;-51
2023/01/22 05:24:00;;;;;;;;;;;;;;;3.09;94.96;95265.03;5056914;28;1094;-52
2023/01/22 05:26:27;;;;;;;;;;;;;;;2.92;93.53;95269.75;5055602;28;1189;-51
2023/01/22 05:28:53;;;;;;;;;;;;;;;2.88;93.58;95268.31;5056797;28;1285;-52
2023/01/22 05:31:19;;;;;;;;;;;;;;;3.00;93.46;95269.22;5056794;28;1052;-51
2023/01/22 05:33:45;;;;;;;;;;;;;;;3.08;92.74;95272.13;5056661;28;1038;-52
2023/01/22 05:36:11;;;;;;;;;;;;;;;2.93;92.77;95276.72;5056724;28;1057;-52
2023/01/22 05:38:37;;;;;;;;;;;;;;;2.62;93.05;95286.03;5056714;28;1992;-52
2023/01/22 05:41:03;;;;;;;;;;;;;;;2.56;93.95;95293.53;5056728;28;1028;-52
2023/01/22 05:43:29;;;;;;;;;;;;;;;2.69;93.94;95291.69;5055458;28;1174;-52
2023/01/22 05:46:02;;;;;;;;;;;;;;;2.66;92.95;95294.56;5056528;28;1005;-51
2023/01/22 05:48:28;;;;;;;;;;;;;;;2.58;93.60;95302.16;5056409;28;1063;-51
2023/01/22 05:50:54;;;;;;;;;;;;;;;2.70;93.77;95301.31;5055262;28;1037;-51
2023/01/22 05:53:20;;;;;;;;;;;;;;;2.59;93.17;95304.72;5056574;28;1023;-51
2023/01/22 05:55:46;;;;;;;;;;;;;;;2.44;92.67;95306.63;5062532;28;1146;-51
2023/01/22 05:58:12;;;;;;;;;;;;;;;2.40;93.58;95314.88;5076368;28;1985;-51
2023/01/22 06:00:38;;;;;;;;;;;;;;;2.54;94.10;95310.31;5076111;28;1101;-51
2023/01/22 06:03:04;;;;;;;;;;;;;;;2.68;93.80;95317.25;5076083;28;1149;-52
2023/01/22 06:05:30;;;;;;;;;;;;;;;2.66;93.12;95320.97;5076070;28;1197;-52
2023/01/22 06:07:56;;;;;;;;;;;;;;;2.56;93.85;95325.19;5076063;28;1116;-51
2023/01/22 06:10:22;;;;;;;;;;;;;;;2.73;93.92;95327.47;5075956;28;1125;-51
2023/01/22 06:12:48;;;;;;;;;;;;;;;2.95;92.95;95332.09;5075983;28;1105;-53
2023/01/22 06:15:14;;;;;;;;;;;;;;;2.97;92.67;95331.97;5076005;28;1030;-52
2023/01/22 06:17:40;;;;;;;;;;;;;;;2.97;93.29;95337.25;5075160;28;1910;-51
2023/01/22 06:20:06;;;;;;;;;;;;;;;3.07;93.05;95340.91;5075804;28;1034;-51
2023/01/22 06:22:32;;;;;;;;;;;;;;;3.24;92.42;95350.25;5075751;28;1880;-52
2023/01/22 06:24:58;;;;;;;;;;;;;;;3.14;91.00;95328.97;5058050;28;1104;-52
2023/01/22 06:27:24;;;;;;;;;;;;;;;3.30;90.17;95352.44;5075768;28;1040;-52
2023/01/22 06:29:50;;;;;;;;;;;;;;;3.30;90.32;95355.09;5075794;28;1009;-52
2023/01/22 06:32:16;;;;;;;;;;;;;;;3.31;91.16;95351.50;5057962;28;1032;-51
2023/01/22 06:34:43;;;;;;;;;;;;;;;3.33;91.18;95352.25;5075477;28;1349;-52
2023/01/22 06:37:09;;;;;;;;;;;;;;;3.00;90.77;95361.66;5075523;28;1037;-52
2023/01/22 06:39:35;;;;;;;;;;;;;;;2.98;93.10;95370.63;5075346;28;1902;-52
2023/01/22 06:42:01;;;;;;;;;;;;;;;4.29;90.30;95372.44;5075611;28;1033;-52
2023/01/22 06:44:27;;;;;;;;;;;;;;;4.88;84.15;95385.50;5075303;28;1045;-52
2023/01/22 06:46:53;;;;;;;;;;;;;;;4.92;81.91;95377.31;5075352;28;988;-52
2023/01/22 06:49:19;;;;;;;;;;;;;;;4.28;85.03;95376.03;5075221;28;1026;-52
2023/01/22 06:51:45;;;;;;;;;;;;;;;3.87;87.75;95380.88;5074920;28;1109;-51
2023/01/22 06:54:11;;;;;;;;;;;;;;;3.76;89.62;95383.47;5075225;28;1034;-52
2023/01/22 06:56:37;;;;;;;;;;;;;;;3.49;88.99;95399.53;5061788;28;1218;-51
2023/01/22 06:59:03;;;;;;;;;;;;;;;3.53;89.37;95398.38;5054980;28;1902;-51
2023/01/22 07:01:29;;;;;;;;;;;;;;;3.63;91.21;95394.09;5054910;28;1061;-52
2023/01/22 07:03:56;;;;;;;;;;;;;;;4.06;89.17;95398.84;5054943;28;1101;-52
2023/01/22 07:06:22;;;;;;;;;;;;;;;4.47;87.81;95400.13;5054799;28;1042;-52
2023/01/22 07:08:48;;;;;;;;;;;;;;;5.01;85.29;95409.22;5055044;28;1215;-52
2023/01/22 07:11:15;;;;;;;;;;;;;;;4.78;85.89;95412.81;5054993;28;1040;-52
2023/01/22 07:13:41;;;;;;;;;;;;;;;4.48;87.22;95407.13;5054671;28;1240;-52
2023/01/22 07:16:07;;;;;;;;;;;;;;;4.27;88.69;95401.66;5054763;28;1144;-52
2023/01/22 07:18:33;;;;;;;;;;;;;;;4.09;90.33;95413.63;5054862;28;1992;-52
2023/01/22 07:21:00;;;;;;;;;;;;;;;3.94;90.91;95420.91;5054643;28;1045;-52
2023/01/22 07:23:26;;;;;;;;;;;;;;;3.77;91.11;95408.94;5054654;28;1038;-52
2023/01/22 07:25:52;;;;;;;;;;;;;;;3.92;91.89;95409.59;5054681;28;1072;-51
2023/01/22 07:28:18;;;;;;;;;;;;;;;4.13;92.13;95412.44;5053607;28;1049;-51
2023/01/22 07:30:47;;;;;;;;;;;;;;;4.53;91.00;95413.88;5054486;28;1142;-51
2023/01/22 07:33:13;;;;;;;;;;;;;;;4.99;89.16;95412.94;5054365;28;1084;-51
2023/01/22 07:35:39;;;;;;;;;;;;;;;5.57;86.88;95412.75;5054472;28;1051;-51
2023/01/22 07:38:05;;;;;;;;;;;;;;;5.97;85.25;95409.53;5054390;28;1993;-51
2023/01/22 07:40:32;;;;;;;;;;;;;;;5.98;85.10;95411.25;5054178;28;1108;-51
2023/01/22 07:42:58;;;;;;;;;;;;;;;6.40;82.79;95406.81;5054324;28;1001;-51
2023/01/22 07:45:24;;;;;;;;;;;;;;;6.03;83.81;95415.19;5054112;28;1009;-51
2023/01/22 07:47:53;;;;;;;;;;;;;;;5.49;87.46;95424.00;5054108;28;1041;-51
2023/01/22 07:50:23;;;;;;;;;;;;;;;5.25;89.43;95422.34;5054268;28;1014;-51
2023/01/22 07:52:49;;;;;;;;;;;;;;;5.27;90.20;95425.72;5053992;28;1284;-51
2023/01/22 07:55:15;;;;;;;;;;;;;;;5.26;91.26;95423.19;5055864;28;1213;-51
2023/01/22 07:57:41;;;;;;;;;;;;;;;5.44;90.25;95431.47;5073742;28;1976;-51
2023/01/22 08:00:11;;;;;;;;;;;;;;;5.50;91.32;95433.63;5073776;28;1030;-51
2023/01/22 08:02:38;;;;;;;;;;;;;;;5.44;91.45;95431.47;5073745;28;1879;-51
2023/01/22 08:05:05;;;;;;;;;;;;;;;5.20;92.33;95442.25;5073769;28;1045;-51
2023/01/22 08:07:31;;;;;;;;;;;;;;;5.21;92.99;95438.59;5073627;28;1282;-51
2023/01/22 08:09:57;;;;;;;;;;;;;;;5.43;91.95;95441.25;5073734;28;1929;-51
2023/01/22 08:12:23;;;;;;;;;;;;;;;5.90;90.53;95438.38;5073373;28;1109;-53
2023/01/22 08:14:49;;;;;;;;;;;;;;;5.82;91.44;95440.78;5073475;28;1038;-52
2023/01/22 08:17:15;;;;;;;;;;;;;;;5.70;92.09;95433.84;5073451;28;1026;-52
2023/01/22 08:19:41;;;;;;;;;;;;;;;5.55;93.67;95442.06;5073591;28;1914;-52
2023/01/22 08:22:07;;;;;;;;;;;;;;;5.50;93.48;95438.94;5073638;28;1056;-52
2023/01/22 08:24:33;;;;;;;;;;;;;;;5.59;94.07;95448.81;5073472;28;977;-52
2023/01/22 08:27:00;;;;;;;;;;;;;;;5.60;94.18;95447.00;5073471;28;978;-51
2023/01/22 08:29:26;;;;;;;;;;;;;;;5.50;94.78;95449.53;5073241;28;1240;-52
2023/01/22 08:31:52;;;;;;;;;;;;;;;5.76;94.06;95450.09;5073567;28;1041;-52
2023/01/22 08:34:18;;;;;;;;;;;;;;;5.84;93.53;95444.16;5073303;28;1065;-51
2023/01/22 08:36:44;;;;;;;;;;;;;;;5.80;93.40;95448.03;5073435;28;1171;-52
2023/01/22 08:39:12;;;;;;;;;;;;;;;5.55;94.30;95457.13;5073076;28;1991;-52
2023/01/22 08:41:41;;;;;;;;;;;;;;;5.64;94.74;95456.41;5073376;28;1094;-52
2023/01/22 08:44:10;;;;;;;;;;;;;;;5.71;93.70;95454.09;5073204;28;978;-51
2023/01/22 08:46:39;;;;;;;;;;;;;;;5.84;93.18;95466.25;5073339;28;1025;-52
2023/01/22 08:49:05;;;;;;;;;;;;;;;5.78;94.03;95468.56;5073174;28;1101;-52
2023/01/22 08:51:31;;;;;;;;;;;;;;;5.81;93.83;95476.28;5073285;28;1020;-51
2023/01/22 08:53:57;;;;;;;;;;;;;;;5.65;95.52;95476.66;5073181;28;1104;-51
2023/01/22 08:56:23;;;;;;;;;;;;;;;5.61;96.18;95484.00;5061718;28;1155;-52
2023/01/22 08:58:50;;;;;;;;;;;;;;;5.72;95.69;95488.47;5052937;28;1918;-52
2023/01/22 09:01:17;;;;;;;;;;;;;;;6.05;95.25;95474.31;5053321;28;993;-52
2023/01/22 09:03:43;;;;;;;;;;;;;;;6.29;94.44;95473.25;5053238;28;1012;-52
2023/01/22 09:06:09;;;;;;;;;;;;;;;6.37;93.68;95473.44;5053197;28;961;-52
2023/01/22 09:08:36;;;;;;;;;;;;;;;6.49;94.34;95468.94;5053001;28;1033;-52
2023/01/22 09:11:03;;;;;;;;;;;;;;;6.67;94.23;95471.84;5053045;28;968;-52
2023/01/22 09:13:29;;;;;;;;;;;;;;;6.77;92.99;95471.91;5052580;28;1231;-52
2023/01/22 09:15:58;;;;;;;;;;;;;;;6.70;93.35;95470.78;5052908;28;1042;-52
2023/01/22 09:18:24;;;;;;;;;;;;;;;6.55;92.65;95472.91;5053246;28;1918;-52
2023/01/22 09:20:50;;;;;;;;;;;;;;;6.28;95.06;95476.88;5053048;28;1056;-52
2023/01/22 09:23:16;;;;;;;;;;;;;;;6.02;96.18;95481.69;5052913;28;1037;-51
2023/01/22 09:25:42;;;;;;;;;;;;;;;6.02;96.82;95481.69;5052751;28;1211;-51
2023/01/22 09:28:11;;;;;;;;;;;;;;;6.18;96.84;95467.97;5052731;28;1069;-52
2023/01/22 09:30:38;;;;;;;;;;;;;;;6.37;95.80;95480.59;5052904;28;1057;-52
2023/01/22 09:33:04;;;;;;;;;;;;;;;6.31;96.28;95471.31;5052705;28;1108;-52
2023/01/22 09:35:30;;;;;;;;;;;;;;;6.39;96.31;95476.84;5052770;28;1033;-52
2023/01/22 09:37:56;;;;;;;;;;;;;;;6.49;96.79;95473.41;5052794;28;1922;-52
2023/01/22 09:40:28;;;;;;;;;;;;;;;6.73;96.56;95466.03;5052643;28;1013;-52
2023/01/22 09:43:00;;;;;;;;;;;;;;;7.01;95.07;95458.38;5052932;28;1032;-52
2023/01/22 09:45:26;;;;;;;;;;;;;;;7.13;95.03;95464.44;5052775;28;1087;-52
2023/01/22 09:47:55;;;;;;;;;;;;;;;7.32;95.32;95466.34;5052682;28;1040;-51
2023/01/22 09:50:30;;;;;;;;;;;;;;;7.55;93.77;95456.34;5052498;28;982;-51
2023/01/22 09:52:58;;;;;;;;;;;;;;;7.36;94.24;95457.13;5055316;28;986;-51
2023/01/22 09:55:28;;;;;;;;;;;;;;;7.24;95.41;95462.53;5058963;28;1182;-52
2023/01/22 09:57:55;;;;;;;;;;;;;;;7.53;95.89;95456.50;5075855;28;1917;-53
2023/01/22 10:00:30;;;;;;;;;;;;;;;7.92;94.43;95458.41;5076241;28;1038;-51
2023/01/22 10:03:00;;;;;;;;;;;;;;;8.35;92.09;95455.38;5083484;28;1428;-52
2023/01/22 10:05:29;;;;;;;;;;;;;;;8.27;91.86;95452.59;5096310;28;957;-52
2023/01/22 10:08:03;;;;;;;;;;;;;;;7.97;93.10;95441.06;5091424;28;1270;-52
2023/01/22 10:10:29;;;;;;;;;;;;;;;8.02;93.73;95444.16;5075857;28;1032;-52
2023/01/22 10:12:58;;;;;;;;;;;;;;;8.23;93.69;95440.50;5075828;28;1334;-52
2023/01/22 10:15:24;;;;;;;;;;;;;;;8.45;93.01;95443.91;5074813;28;2863;-52
2023/01/22 10:17:53;;;;;;;;;;;;;;;8.14;92.66;95442.19;5075526;28;1997;-51
2023/01/22 10:20:19;;;;;;;;;;;;;;;8.11;93.74;95452.28;5075675;28;981;-51
2023/01/22 10:22:47;;;;;;;;;;;;;;;8.22;94.68;95452.16;5075995;28;973;-51
2023/01/22 10:25:14;;;;;;;;;;;;;;;8.21;94.56;95453.13;5075982;28;965;-51
2023/01/22 10:27:40;;;;;;;;;;;;;;;7.99;93.75;95406.31;5075502;28;1100;-51
2023/01/22 10:30:14;;;;;;;;;;;;;;;8.42;93.47;95449.50;5075392;28;1034;-51
2023/01/22 10:32:41;;;;;;;;;;;;;;;8.49;93.28;95453.31;5075478;28;773;-52
2023/01/22 10:35:10;;;;;;;;;;;;;;;8.50;93.04;95446.97;5057658;28;1029;-51
2023/01/22 10:37:55;;;;;;;;;;;;;;;8.65;92.00;95453.59;5075479;28;1914;-50
2023/01/22 10:40:21;;;;;;;;;;;;;;;8.62;90.96;95453.84;5075233;28;1037;-52
2023/01/22 10:42:58;;;;;;;;;;;;;;;8.75;91.65;95448.25;5075245;28;1017;-51
2023/01/22 10:45:24;;;;;;;;;;;;;;;8.92;90.33;95436.00;5075286;28;1060;-52
2023/01/22 10:47:50;;;;;;;;;;;;;;;9.11;89.18;95435.13;5074005;28;1109;-52
2023/01/22 10:50:18;;;;;;;;;;;;;;;9.24;88.48;95440.09;5073980;28;3063;-52
2023/01/22 10:52:47;;;;;;;;;;;;;;;9.16;87.92;95436.34;5074467;28;1018;-52
2023/01/22 10:55:21;;;;;;;;;;;;;;;9.28;88.90;95433.50;5072706;28;1217;-52
2023/01/22 10:57:51;;;;;;;;;;;;;;;9.33;87.04;95429.41;5054393;28;1916;-52
2023/01/22 11:00:34;;;;;;;;;;;;;;;9.42;87.32;95433.00;5054569;28;1041;-52
2023/01/22 11:03:00;;;;;;;;;;;;;;;9.51;85.98;95426.81;5054408;28;1029;-51
2023/01/22 11:05:31;;;;;;;;;;;;;;;9.67;84.63;95425.31;5054522;28;1042;-52
2023/01/22 11:08:02;;;;;;;;;;;;;;;9.65;85.34;95428.13;5055041;28;1025;-52
2023/01/22 11:10:31;;;;;;;;;;;;;;;9.69;84.97;95426.00;5054663;28;1084;-52
2023/01/22 11:13:04;;;;;;;;;;;;;;;9.78;86.22;95425.94;5054658;28;1113;-52
2023/01/22 11:15:43;;;;;;;;;;;;;;;9.74;84.10;95418.41;5054408;28;1116;-52
2023/01/22 11:18:27;;;;;;;;;;;;;;;9.78;86.15;95422.44;5056857;28;1993;-52
2023/01/22 11:20:54;;;;;;;;;;;;;;;9.68;86.05;95422.50;5073900;28;1050;-52
2023/01/22 11:23:43;;;;;;;;;;;;;;;9.66;86.52;95420.97;5073231;28;2916;-53
2023/01/22 11:26:16;;;;;;;;;;;;;;;9.62;86.33;95419.56;5063458;28;1880;-52
2023/01/22 11:28:51;;;;;;;;;;;;;;;9.61;87.44;95417.91;5074340;28;1514;-52
2023/01/22 11:31:40;;;;;;;;;;;;;;;9.62;87.55;95415.09;5074705;28;1381;-52
2023/01/22 11:34:25;;;;;;;;;;;;;;;9.71;86.76;95424.88;5063555;28;1293;-52
2023/01/22 11:37:07;;;;;;;;;;;;;;;9.68;87.30;95425.16;5073979;28;1711;-52
2023/01/22 11:39:37;;;;;;;;;;;;;;;9.81;86.39;95421.28;5073913;28;1983;-52
2023/01/22 11:42:19;;;;;;;;;;;;;;;10.08;86.62;95415.09;5073956;28;1072;-52
2023/01/22 11:44:45;;;;;;;;;;;;;;;10.07;86.30;95408.06;5074363;28;1101;-52
2023/01/22 11:47:30;;;;;;;;;;;;;;;10.17;85.87;95406.16;5074190;28;1056;-53
2023/01/22 11:50:02;;;;;;;;;;;;;;;10.03;85.88;95412.03;5073726;28;1288;-52
2023/01/22 11:52:48;;;;;;;;;;;;;;;9.92;84.99;95405.06;5073915;28;1041;-53
2023/01/22 11:55:26;;;;;;;;;;;;;;;10.08;85.08;95407.91;5032357;28;1267;-52
2023/01/22 11:58:18;;;;;;;;;;;;;;;10.14;85.63;95403.78;5073826;28;1987;-52
2023/01/22 12:00:52;;;;;;;;;;;;;;;10.50;83.86;95404.63;5073775;28;1676;-52
2023/01/22 12:03:33;;;;;;;;;;;;;;;10.92;82.56;95411.13;5073585;28;1037;-52
2023/01/22 12:06:17;;;;;;;;;;;;;;;11.13;81.62;95403.59;5073919;28;1024;-52
2023/01/22 12:09:19;;;;;;;;;;;;;;;10.88;81.82;95404.44;5073763;28;2056;-52
2023/01/22 12:12:00;;;;;;;;;;;;;;;10.83;82.30;95415.63;4992077;28;1238;-51
2023/01/22 12:14:33;;;;;;;;;;;;;;;10.71;82.41;95408.81;5064797;28;1116;-51
2023/01/22 12:16:59;;;;;;;;;;;;;;;10.64;83.21;95405.94;5073644;28;1196;-52
2023/01/22 12:19:43;;;;;;;;;;;;;;;10.67;83.12;95404.78;5073309;28;1983;-52
2023/01/22 12:22:16;;;;;;;;;;;;;;;10.61;83.88;95405.41;5073545;28;997;-52
2023/01/22 12:24:46;;;;;;;;;;;;;;;10.68;83.87;95406.44;5055113;28;1517;-51
2023/01/22 12:27:20;;;;;;;;;;;;;;;10.94;83.95;95403.78;5073793;28;1068;-52
2023/01/22 12:29:51;;;;;;;;;;;;;;;11.25;82.06;95414.88;5073362;28;1100;-51
2023/01/22 12:32:20;;;;;;;;;;;;;;;10.91;81.89;95406.81;5073342;28;1135;-51
2023/01/22 12:34:51;;;;;;;;;;;;;;;10.71;82.72;95403.47;5072705;28;1912;-52
2023/01/22 12:37:20;;;;;;;;;;;;;;;10.71;83.13;95404.31;5072070;28;1367;-52
2023/01/22 12:39:50;;;;;;;;;;;;;;;10.97;83.29;95403.50;5072866;28;1971;-52
2023/01/22 12:42:36;;;;;;;;;;;;;;;11.14;82.93;95405.25;5073329;28;977;-52
2023/01/22 12:45:29;;;;;;;;;;;;;;;11.02;82.75;95411.03;5073520;28;957;-51
2023/01/22 12:48:04;;;;;;;;;;;;;;;10.91;84.15;95417.50;5057283;28;1230;-52
2023/01/22 12:50:30;;;;;;;;;;;;;;;10.87;84.04;95411.63;5072546;28;1158;-52
2023/01/22 12:53:04;;;;;;;;;;;;;;;10.84;84.39;95413.78;5072744;28;1037;-52
2023/01/22 12:55:33;;;;;;;;;;;;;;;10.74;84.44;95414.69;5073046;28;1135;-52
2023/01/22 12:57:59;;;;;;;;;;;;;;;10.80;84.25;95423.09;5073245;28;1913;-52
2023/01/22 13:00:26;;;;;;;;;;;;;;;10.86;84.20;95427.81;5073253;28;1085;-51
2023/01/22 13:02:52;;;;;;;;;;;;;;;11.00;83.52;95418.38;5072322;28;1024;-52
2023/01/22 13:05:20;;;;;;;;;;;;;;;11.04;83.65;95420.59;5055116;28;986;-52
2023/01/22 13:07:47;;;;;;;;;;;;;;;11.06;83.97;95421.28;5073029;28;1069;-52
2023/01/22 13:10:22;;;;;;;;;;;;;;;10.98;84.10;95418.53;5073099;28;1084;-52
2023/01/22 13:12:52;;;;;;;;;;;;;;;10.98;83.69;95415.84;5073010;28;1219;-52
2023/01/22 13:15:21;;;;;;;;;;;;;;;10.93;84.33;95420.84;5073118;28;965;-52
2023/01/22 13:18:10;;;;;;;;;;;;;;;10.92;83.97;95411.97;5072867;28;2004;-51
2023/01/22 13:20:46;;;;;;;;;;;;;;;10.99;83.90;95416.72;5072066;28;1995;-52
2023/01/22 13:23:13;;;;;;;;;;;;;;;11.04;84.71;95412.56;5072870;28;977;-52